sensor_id;sensor_type;location;lat;lon;timestamp;P1;durP1;ratioP1;P2;durP2;ratioP2
2602;SDS011;1311;47.966;7.958;2023-01-28T00:02:20;10.07;;;6.27;;
2602;SDS011;1311;47.966;7.958;2023-01-28T00:04:47;10.10;;;5.43;;
2602;SDS011;1311;47.966;7.958;2023-01-28T00:07:14;12.07;;;6.63;;
2602;SDS011;1311;47.966;7.958;2023-01-28T00:09:41;9.60;;;5.87;;
2602;SDS011;1311;47.966;7.958;2023-01-28T00:12:09;10.57;;;6.13;;
2602;SDS011;1311;47.966;7.958;2023-01-28T00:14:35;10.50;;;6.17;;
2602;SDS011;1311;47.966;7.958;2023-01-28T00:17:03;7.97;;;6.00;;
2602;SDS011;1311;47.966;7.958;2023-01-28T00:19:30;11.10;;;6.37;;
2602;SDS011;1311;47.966;7.958;2023-01-28T00:21:56;11.93;;;6.13;;
2602;SDS011;1311;47.966;7.958;2023-01-28T00:24:23;9.10;;;5.90;;
2602;SDS011;1311;47.966;7.958;2023-01-28T00:26:50;8.17;;;5.63;;
2602;SDS011;1311;47.966;7.958;2023-01-28T00:29:18;9.17;;;5.47;;
2602;SDS011;1311;47.966;7.958;2023-01-28T00:31:45;8.60;;;5.40;;
2602;SDS011;1311;47.966;7.958;2023-01-28T00:34:11;9.73;;;6.20;;
2602;SDS011;1311;47.966;7.958;2023-01-28T00:36:38;11.60;;;7.10;;
2602;SDS011;1311;47.966;7.958;2023-01-28T00:39:06;10.83;;;6.67;;
2602;SDS011;1311;47.966;7.958;2023-01-28T00:41:38;12.50;;;7.40;;
2602;SDS011;1311;47.966;7.958;2023-01-28T00:44:05;8.77;;;6.20;;
2602;SDS011;1311;47.966;7.958;2023-01-28T00:46:35;8.73;;;6.40;;
2602;SDS011;1311;47.966;7.958;2023-01-28T00:49:01;9.40;;;6.50;;
2602;SDS011;1311;47.966;7.958;2023-01-28T00:51:28;11.03;;;6.60;;
2602;SDS011;1311;47.966;7.958;2023-01-28T00:53:55;8.10;;;6.20;;
2602;SDS011;1311;47.966;7.958;2023-01-28T00:56:22;10.27;;;6.50;;
2602;SDS011;1311;47.966;7.958;2023-01-28T00:58:48;8.43;;;6.00;;
2602;SDS011;1311;47.966;7.958;2023-01-28T01:01:16;7.80;;;5.37;;
2602;SDS011;1311;47.966;7.958;2023-01-28T01:03:46;11.03;;;6.93;;
2602;SDS011;1311;47.966;7.958;2023-01-28T01:06:18;10.67;;;6.53;;
2602;SDS011;1311;47.966;7.958;2023-01-28T01:08:46;7.50;;;5.57;;
2602;SDS011;1311;47.966;7.958;2023-01-28T01:11:14;10.70;;;6.70;;
2602;SDS011;1311;47.966;7.958;2023-01-28T01:13:41;11.13;;;6.40;;
2602;SDS011;1311;47.966;7.958;2023-01-28T01:16:09;9.43;;;7.00;;
2602;SDS011;1311;47.966;7.958;2023-01-28T01:18:37;12.40;;;7.53;;
2602;SDS011;1311;47.966;7.958;2023-01-28T01:21:08;10.53;;;6.73;;
2602;SDS011;1311;47.966;7.958;2023-01-28T01:23:35;9.50;;;6.53;;
2602;SDS011;1311;47.966;7.958;2023-01-28T01:26:02;9.07;;;6.47;;
2602;SDS011;1311;47.966;7.958;2023-01-28T01:28:29;10.77;;;6.77;;
2602;SDS011;1311;47.966;7.958;2023-01-28T01:30:59;10.70;;;7.00;;
2602;SDS011;1311;47.966;7.958;2023-01-28T01:33:28;11.50;;;7.57;;
2602;SDS011;1311;47.966;7.958;2023-01-28T01:35:56;10.60;;;6.57;;
2602;SDS011;1311;47.966;7.958;2023-01-28T01:38:25;9.60;;;6.73;;
2602;SDS011;1311;47.966;7.958;2023-01-28T01:40:54;9.67;;;6.37;;
2602;SDS011;1311;47.966;7.958;2023-01-28T01:43:22;12.37;;;6.97;;
2602;SDS011;1311;47.966;7.958;2023-01-28T01:45:50;11.07;;;6.90;;
2602;SDS011;1311;47.966;7.958;2023-01-28T01:48:22;12.53;;;7.80;;
2602;SDS011;1311;47.966;7.958;2023-01-28T01:50:55;13.10;;;7.83;;
2602;SDS011;1311;47.966;7.958;2023-01-28T01:53:27;15.10;;;7.87;;
2602;SDS011;1311;47.966;7.958;2023-01-28T01:55:57;13.17;;;7.83;;
2602;SDS011;1311;47.966;7.958;2023-01-28T01:58:27;15.03;;;9.03;;
2602;SDS011;1311;47.966;7.958;2023-01-28T02:00:56;11.37;;;7.40;;
2602;SDS011;1311;47.966;7.958;2023-01-28T02:03:24;9.77;;;6.40;;
2602;SDS011;1311;47.966;7.958;2023-01-28T02:05:54;14.03;;;6.60;;
2602;SDS011;1311;47.966;7.958;2023-01-28T02:08:21;10.43;;;7.10;;
2602;SDS011;1311;47.966;7.958;2023-01-28T02:10:51;16.73;;;7.80;;
2602;SDS011;1311;47.966;7.958;2023-01-28T02:13:20;11.50;;;7.57;;
2602;SDS011;1311;47.966;7.958;2023-01-28T02:15:50;11.43;;;6.80;;
2602;SDS011;1311;47.966;7.958;2023-01-28T02:18:18;13.17;;;7.17;;
2602;SDS011;1311;47.966;7.958;2023-01-28T02:20:54;7.93;;;5.70;;
2602;SDS011;1311;47.966;7.958;2023-01-28T02:23:53;12.57;;;7.20;;
2602;SDS011;1311;47.966;7.958;2023-01-28T02:26:51;11.13;;;7.00;;
2602;SDS011;1311;47.966;7.958;2023-01-28T02:29:30;11.10;;;6.37;;
2602;SDS011;1311;47.966;7.958;2023-01-28T02:32:03;10.73;;;6.80;;
2602;SDS011;1311;47.966;7.958;2023-01-28T02:34:35;11.60;;;6.33;;
2602;SDS011;1311;47.966;7.958;2023-01-28T02:37:07;8.77;;;5.17;;
2602;SDS011;1311;47.966;7.958;2023-01-28T02:39:39;11.40;;;6.37;;
2602;SDS011;1311;47.966;7.958;2023-01-28T02:42:09;11.10;;;6.77;;
2602;SDS011;1311;47.966;7.958;2023-01-28T02:44:41;10.43;;;6.50;;
2602;SDS011;1311;47.966;7.958;2023-01-28T02:47:09;11.33;;;6.60;;
2602;SDS011;1311;47.966;7.958;2023-01-28T02:49:54;12.10;;;7.13;;
2602;SDS011;1311;47.966;7.958;2023-01-28T02:52:36;10.80;;;6.07;;
2602;SDS011;1311;47.966;7.958;2023-01-28T02:55:34;9.30;;;6.50;;
2602;SDS011;1311;47.966;7.958;2023-01-28T02:58:08;10.40;;;6.77;;
2602;SDS011;1311;47.966;7.958;2023-01-28T03:00:45;9.50;;;6.07;;
2602;SDS011;1311;47.966;7.958;2023-01-28T03:03:20;11.70;;;6.90;;
2602;SDS011;1311;47.966;7.958;2023-01-28T03:05:52;13.80;;;7.20;;
2602;SDS011;1311;47.966;7.958;2023-01-28T03:08:31;9.50;;;6.80;;
2602;SDS011;1311;47.966;7.958;2023-01-28T03:11:18;9.00;;;6.10;;
2602;SDS011;1311;47.966;7.958;2023-01-28T03:14:03;9.17;;;5.87;;
2602;SDS011;1311;47.966;7.958;2023-01-28T03:16:50;12.00;;;6.27;;
2602;SDS011;1311;47.966;7.958;2023-01-28T03:19:36;10.50;;;6.90;;
2602;SDS011;1311;47.966;7.958;2023-01-28T03:22:20;9.70;;;6.10;;
2602;SDS011;1311;47.966;7.958;2023-01-28T03:25:07;8.77;;;5.90;;
2602;SDS011;1311;47.966;7.958;2023-01-28T03:27:53;12.07;;;6.20;;
2602;SDS011;1311;47.966;7.958;2023-01-28T03:30:41;8.00;;;5.80;;
2602;SDS011;1311;47.966;7.958;2023-01-28T03:33:29;10.07;;;6.13;;
2602;SDS011;1311;47.966;7.958;2023-01-28T03:36:17;9.73;;;6.60;;
2602;SDS011;1311;47.966;7.958;2023-01-28T03:39:01;8.10;;;5.40;;
2602;SDS011;1311;47.966;7.958;2023-01-28T03:41:28;7.10;;;4.97;;
2602;SDS011;1311;47.966;7.958;2023-01-28T03:43:55;8.50;;;5.83;;
2602;SDS011;1311;47.966;7.958;2023-01-28T03:46:22;9.10;;;6.63;;
2602;SDS011;1311;47.966;7.958;2023-01-28T03:48:51;10.60;;;6.10;;
2602;SDS011;1311;47.966;7.958;2023-01-28T03:51:18;8.83;;;6.00;;
2602;SDS011;1311;47.966;7.958;2023-01-28T03:53:45;7.50;;;5.17;;
2602;SDS011;1311;47.966;7.958;2023-01-28T03:56:11;10.13;;;6.77;;
2602;SDS011;1311;47.966;7.958;2023-01-28T03:58:42;11.50;;;5.97;;
2602;SDS011;1311;47.966;7.958;2023-01-28T04:01:17;7.93;;;6.07;;
2602;SDS011;1311;47.966;7.958;2023-01-28T04:03:43;8.70;;;6.03;;
2602;SDS011;1311;47.966;7.958;2023-01-28T04:06:12;11.10;;;6.50;;
2602;SDS011;1311;47.966;7.958;2023-01-28T04:08:39;8.83;;;6.30;;
2602;SDS011;1311;47.966;7.958;2023-01-28T04:11:13;7.10;;;5.77;;
2602;SDS011;1311;47.966;7.958;2023-01-28T04:13:44;9.70;;;6.40;;
2602;SDS011;1311;47.966;7.958;2023-01-28T04:16:12;9.23;;;6.30;;
2602;SDS011;1311;47.966;7.958;2023-01-28T04:18:40;8.80;;;5.70;;
2602;SDS011;1311;47.966;7.958;2023-01-28T04:21:07;8.70;;;5.90;;
2602;SDS011;1311;47.966;7.958;2023-01-28T04:23:36;10.03;;;5.77;;
2602;SDS011;1311;47.966;7.958;2023-01-28T04:26:03;11.83;;;6.13;;
2602;SDS011;1311;47.966;7.958;2023-01-28T04:28:30;9.40;;;6.30;;
2602;SDS011;1311;47.966;7.958;2023-01-28T04:30:57;8.53;;;5.90;;
2602;SDS011;1311;47.966;7.958;2023-01-28T04:33:24;8.53;;;5.47;;
2602;SDS011;1311;47.966;7.958;2023-01-28T04:35:50;7.40;;;5.70;;
2602;SDS011;1311;47.966;7.958;2023-01-28T04:38:17;9.83;;;5.30;;
2602;SDS011;1311;47.966;7.958;2023-01-28T04:40:47;8.90;;;5.47;;
2602;SDS011;1311;47.966;7.958;2023-01-28T04:43:15;7.60;;;5.40;;
2602;SDS011;1311;47.966;7.958;2023-01-28T04:45:42;6.70;;;5.10;;
2602;SDS011;1311;47.966;7.958;2023-01-28T04:48:08;5.87;;;4.43;;
2602;SDS011;1311;47.966;7.958;2023-01-28T04:50:35;8.47;;;5.63;;
2602;SDS011;1311;47.966;7.958;2023-01-28T04:53:02;10.13;;;6.80;;
2602;SDS011;1311;47.966;7.958;2023-01-28T04:55:29;10.40;;;7.20;;
2602;SDS011;1311;47.966;7.958;2023-01-28T04:57:57;13.80;;;7.77;;
2602;SDS011;1311;47.966;7.958;2023-01-28T05:00:23;10.77;;;7.00;;
2602;SDS011;1311;47.966;7.958;2023-01-28T05:02:50;12.40;;;8.00;;
2602;SDS011;1311;47.966;7.958;2023-01-28T05:05:17;13.93;;;8.60;;
2602;SDS011;1311;47.966;7.958;2023-01-28T05:07:49;13.20;;;7.23;;
2602;SDS011;1311;47.966;7.958;2023-01-28T05:10:16;11.03;;;7.00;;
2602;SDS011;1311;47.966;7.958;2023-01-28T05:12:45;11.80;;;6.90;;
2602;SDS011;1311;47.966;7.958;2023-01-28T05:15:13;10.30;;;6.93;;
2602;SDS011;1311;47.966;7.958;2023-01-28T05:17:40;8.40;;;6.67;;
2602;SDS011;1311;47.966;7.958;2023-01-28T05:20:08;10.40;;;7.00;;
2602;SDS011;1311;47.966;7.958;2023-01-28T05:22:36;8.77;;;5.80;;
2602;SDS011;1311;47.966;7.958;2023-01-28T05:25:04;7.40;;;5.07;;
2602;SDS011;1311;47.966;7.958;2023-01-28T05:27:31;7.63;;;5.60;;
2602;SDS011;1311;47.966;7.958;2023-01-28T05:29:58;9.10;;;6.67;;
2602;SDS011;1311;47.966;7.958;2023-01-28T05:32:27;9.40;;;5.87;;
2602;SDS011;1311;47.966;7.958;2023-01-28T05:34:53;8.40;;;4.97;;
2602;SDS011;1311;47.966;7.958;2023-01-28T05:37:20;7.60;;;4.93;;
2602;SDS011;1311;47.966;7.958;2023-01-28T05:39:47;5.30;;;4.07;;
2602;SDS011;1311;47.966;7.958;2023-01-28T05:42:14;7.37;;;5.10;;
2602;SDS011;1311;47.966;7.958;2023-01-28T05:44:43;9.00;;;5.43;;
2602;SDS011;1311;47.966;7.958;2023-01-28T05:47:10;7.00;;;4.63;;
2602;SDS011;1311;47.966;7.958;2023-01-28T05:49:38;6.20;;;4.43;;
2602;SDS011;1311;47.966;7.958;2023-01-28T05:52:05;7.57;;;4.80;;
2602;SDS011;1311;47.966;7.958;2023-01-28T05:54:32;7.53;;;4.90;;
2602;SDS011;1311;47.966;7.958;2023-01-28T05:56:58;8.23;;;4.90;;
2602;SDS011;1311;47.966;7.958;2023-01-28T05:59:25;9.20;;;4.80;;
2602;SDS011;1311;47.966;7.958;2023-01-28T06:01:52;6.67;;;4.80;;
2602;SDS011;1311;47.966;7.958;2023-01-28T06:04:19;6.47;;;4.10;;
2602;SDS011;1311;47.966;7.958;2023-01-28T06:06:47;6.50;;;4.30;;
2602;SDS011;1311;47.966;7.958;2023-01-28T06:09:14;5.50;;;3.90;;
2602;SDS011;1311;47.966;7.958;2023-01-28T06:11:40;5.30;;;4.03;;
2602;SDS011;1311;47.966;7.958;2023-01-28T06:14:08;8.60;;;4.70;;
2602;SDS011;1311;47.966;7.958;2023-01-28T06:16:35;6.23;;;4.03;;
2602;SDS011;1311;47.966;7.958;2023-01-28T06:19:02;5.50;;;4.13;;
2602;SDS011;1311;47.966;7.958;2023-01-28T06:21:28;5.93;;;4.33;;
2602;SDS011;1311;47.966;7.958;2023-01-28T06:23:57;6.03;;;3.83;;
2602;SDS011;1311;47.966;7.958;2023-01-28T06:26:23;6.30;;;4.27;;
2602;SDS011;1311;47.966;7.958;2023-01-28T06:28:50;5.00;;;4.40;;
2602;SDS011;1311;47.966;7.958;2023-01-28T06:31:17;6.50;;;4.00;;
2602;SDS011;1311;47.966;7.958;2023-01-28T06:33:44;5.20;;;4.20;;
2602;SDS011;1311;47.966;7.958;2023-01-28T06:36:11;5.47;;;3.97;;
2602;SDS011;1311;47.966;7.958;2023-01-28T06:38:37;4.83;;;3.57;;
2602;SDS011;1311;47.966;7.958;2023-01-28T06:41:06;4.50;;;3.23;;
2602;SDS011;1311;47.966;7.958;2023-01-28T06:43:32;5.20;;;3.47;;
2602;SDS011;1311;47.966;7.958;2023-01-28T06:45:59;3.77;;;3.40;;
2602;SDS011;1311;47.966;7.958;2023-01-28T06:48:26;4.40;;;3.20;;
2602;SDS011;1311;47.966;7.958;2023-01-28T06:50:53;4.37;;;3.30;;
2602;SDS011;1311;47.966;7.958;2023-01-28T06:53:20;5.53;;;3.10;;
2602;SDS011;1311;47.966;7.958;2023-01-28T06:55:47;6.10;;;3.60;;
2602;SDS011;1311;47.966;7.958;2023-01-28T06:58:15;4.77;;;3.43;;
2602;SDS011;1311;47.966;7.958;2023-01-28T07:00:42;3.80;;;2.87;;
2602;SDS011;1311;47.966;7.958;2023-01-28T07:03:09;4.00;;;3.00;;
2602;SDS011;1311;47.966;7.958;2023-01-28T07:05:36;5.10;;;3.40;;
2602;SDS011;1311;47.966;7.958;2023-01-28T07:08:03;5.77;;;3.17;;
2602;SDS011;1311;47.966;7.958;2023-01-28T07:10:29;3.10;;;2.70;;
2602;SDS011;1311;47.966;7.958;2023-01-28T07:12:56;3.63;;;3.03;;
2602;SDS011;1311;47.966;7.958;2023-01-28T07:15:24;3.37;;;2.37;;
2602;SDS011;1311;47.966;7.958;2023-01-28T07:17:51;3.20;;;2.70;;
2602;SDS011;1311;47.966;7.958;2023-01-28T07:20:18;3.73;;;2.97;;
2602;SDS011;1311;47.966;7.958;2023-01-28T07:22:46;3.20;;;2.37;;
2602;SDS011;1311;47.966;7.958;2023-01-28T07:25:13;3.37;;;2.10;;
2602;SDS011;1311;47.966;7.958;2023-01-28T07:27:44;2.77;;;2.07;;
2602;SDS011;1311;47.966;7.958;2023-01-28T07:30:13;2.30;;;1.67;;
2602;SDS011;1311;47.966;7.958;2023-01-28T07:32:41;2.30;;;1.80;;
2602;SDS011;1311;47.966;7.958;2023-01-28T07:35:08;3.80;;;2.50;;
2602;SDS011;1311;47.966;7.958;2023-01-28T07:37:35;2.40;;;1.77;;
2602;SDS011;1311;47.966;7.958;2023-01-28T07:40:01;2.50;;;2.30;;
2602;SDS011;1311;47.966;7.958;2023-01-28T07:42:32;3.40;;;2.70;;
2602;SDS011;1311;47.966;7.958;2023-01-28T07:44:59;3.87;;;2.60;;
2602;SDS011;1311;47.966;7.958;2023-01-28T07:47:25;5.20;;;3.03;;
2602;SDS011;1311;47.966;7.958;2023-01-28T07:49:54;2.67;;;2.30;;
2602;SDS011;1311;47.966;7.958;2023-01-28T07:52:21;3.70;;;2.37;;
2602;SDS011;1311;47.966;7.958;2023-01-28T07:54:48;5.60;;;2.90;;
2602;SDS011;1311;47.966;7.958;2023-01-28T07:57:15;4.13;;;2.90;;
2602;SDS011;1311;47.966;7.958;2023-01-28T07:59:47;2.20;;;2.00;;
2602;SDS011;1311;47.966;7.958;2023-01-28T08:02:14;2.30;;;2.00;;
2602;SDS011;1311;47.966;7.958;2023-01-28T08:04:42;3.77;;;2.50;;
2602;SDS011;1311;47.966;7.958;2023-01-28T08:07:10;2.40;;;2.17;;
2602;SDS011;1311;47.966;7.958;2023-01-28T08:09:37;2.90;;;2.13;;
2602;SDS011;1311;47.966;7.958;2023-01-28T08:12:03;3.33;;;2.53;;
2602;SDS011;1311;47.966;7.958;2023-01-28T08:14:30;3.93;;;2.50;;
2602;SDS011;1311;47.966;7.958;2023-01-28T08:16:57;5.07;;;3.47;;
2602;SDS011;1311;47.966;7.958;2023-01-28T08:19:24;3.83;;;2.70;;
2602;SDS011;1311;47.966;7.958;2023-01-28T08:21:51;5.67;;;3.40;;
2602;SDS011;1311;47.966;7.958;2023-01-28T08:24:19;3.70;;;3.00;;
2602;SDS011;1311;47.966;7.958;2023-01-28T08:26:47;3.40;;;2.97;;
2602;SDS011;1311;47.966;7.958;2023-01-28T08:29:13;3.30;;;2.73;;
2602;SDS011;1311;47.966;7.958;2023-01-28T08:31:40;4.00;;;3.37;;
2602;SDS011;1311;47.966;7.958;2023-01-28T08:34:09;4.93;;;3.30;;
2602;SDS011;1311;47.966;7.958;2023-01-28T08:36:39;5.10;;;3.40;;
2602;SDS011;1311;47.966;7.958;2023-01-28T08:39:06;4.37;;;2.70;;
2602;SDS011;1311;47.966;7.958;2023-01-28T08:41:34;3.37;;;2.10;;
2602;SDS011;1311;47.966;7.958;2023-01-28T08:44:01;3.87;;;2.50;;
2602;SDS011;1311;47.966;7.958;2023-01-28T08:46:27;4.50;;;2.30;;
2602;SDS011;1311;47.966;7.958;2023-01-28T08:48:54;2.60;;;2.13;;
2602;SDS011;1311;47.966;7.958;2023-01-28T08:51:21;3.30;;;2.77;;
2602;SDS011;1311;47.966;7.958;2023-01-28T08:53:48;2.30;;;1.83;;
2602;SDS011;1311;47.966;7.958;2023-01-28T08:56:14;2.50;;;1.80;;
2602;SDS011;1311;47.966;7.958;2023-01-28T08:58:42;5.10;;;3.13;;
2602;SDS011;1311;47.966;7.958;2023-01-28T09:01:10;3.17;;;2.60;;
2602;SDS011;1311;47.966;7.958;2023-01-28T09:03:36;2.47;;;2.20;;
2602;SDS011;1311;47.966;7.958;2023-01-28T09:06:03;3.00;;;2.47;;
2602;SDS011;1311;47.966;7.958;2023-01-28T09:08:31;2.53;;;1.97;;
2602;SDS011;1311;47.966;7.958;2023-01-28T09:10:58;2.60;;;2.27;;
2602;SDS011;1311;47.966;7.958;2023-01-28T09:13:25;2.77;;;2.17;;
2602;SDS011;1311;47.966;7.958;2023-01-28T09:15:53;3.77;;;2.10;;
2602;SDS011;1311;47.966;7.958;2023-01-28T09:18:20;5.73;;;2.87;;
2602;SDS011;1311;47.966;7.958;2023-01-28T09:20:47;1.80;;;1.70;;
2602;SDS011;1311;47.966;7.958;2023-01-28T09:23:14;2.20;;;1.80;;
2602;SDS011;1311;47.966;7.958;2023-01-28T09:25:41;4.23;;;2.27;;
2602;SDS011;1311;47.966;7.958;2023-01-28T09:28:08;3.90;;;2.37;;
2602;SDS011;1311;47.966;7.958;2023-01-28T09:30:34;2.20;;;1.70;;
2602;SDS011;1311;47.966;7.958;2023-01-28T09:33:03;2.23;;;1.90;;
2602;SDS011;1311;47.966;7.958;2023-01-28T09:35:31;2.63;;;1.80;;
2602;SDS011;1311;47.966;7.958;2023-01-28T09:37:58;4.37;;;2.20;;
2602;SDS011;1311;47.966;7.958;2023-01-28T09:40:29;2.40;;;1.87;;
2602;SDS011;1311;47.966;7.958;2023-01-28T09:43:09;3.00;;;1.80;;
2602;SDS011;1311;47.966;7.958;2023-01-28T09:46:04;4.00;;;2.80;;
2602;SDS011;1311;47.966;7.958;2023-01-28T09:48:37;2.60;;;2.00;;
2602;SDS011;1311;47.966;7.958;2023-01-28T09:51:07;2.80;;;2.60;;
2602;SDS011;1311;47.966;7.958;2023-01-28T09:53:38;2.43;;;2.17;;
2602;SDS011;1311;47.966;7.958;2023-01-28T09:56:10;2.60;;;2.30;;
2602;SDS011;1311;47.966;7.958;2023-01-28T09:58:40;2.70;;;2.07;;
2602;SDS011;1311;47.966;7.958;2023-01-28T10:01:10;2.37;;;2.10;;
2602;SDS011;1311;47.966;7.958;2023-01-28T10:03:55;4.40;;;2.33;;
2602;SDS011;1311;47.966;7.958;2023-01-28T10:06:33;2.57;;;2.20;;
2602;SDS011;1311;47.966;7.958;2023-01-28T10:09:17;3.20;;;2.60;;
2602;SDS011;1311;47.966;7.958;2023-01-28T10:14:42;3.10;;;2.10;;
2602;SDS011;1311;47.966;7.958;2023-01-28T10:17:20;2.43;;;1.90;;
2602;SDS011;1311;47.966;7.958;2023-01-28T10:19:54;2.57;;;2.37;;
2602;SDS011;1311;47.966;7.958;2023-01-28T10:22:25;2.50;;;2.30;;
2602;SDS011;1311;47.966;7.958;2023-01-28T10:24:54;2.63;;;2.20;;
2602;SDS011;1311;47.966;7.958;2023-01-28T10:27:27;3.10;;;2.33;;
2602;SDS011;1311;47.966;7.958;2023-01-28T10:29:56;4.57;;;2.43;;
2602;SDS011;1311;47.966;7.958;2023-01-28T10:32:25;2.97;;;2.30;;
2602;SDS011;1311;47.966;7.958;2023-01-28T10:34:56;3.20;;;2.10;;
2602;SDS011;1311;47.966;7.958;2023-01-28T10:37:25;3.50;;;2.70;;
2602;SDS011;1311;47.966;7.958;2023-01-28T10:39:53;3.47;;;2.63;;
2602;SDS011;1311;47.966;7.958;2023-01-28T10:42:26;5.80;;;3.63;;
2602;SDS011;1311;47.966;7.958;2023-01-28T10:44:55;6.40;;;4.00;;
2602;SDS011;1311;47.966;7.958;2023-01-28T10:47:27;3.77;;;2.63;;
2602;SDS011;1311;47.966;7.958;2023-01-28T10:49:58;3.20;;;2.50;;
2602;SDS011;1311;47.966;7.958;2023-01-28T10:52:26;2.80;;;2.37;;
2602;SDS011;1311;47.966;7.958;2023-01-28T10:55:00;3.07;;;2.30;;
2602;SDS011;1311;47.966;7.958;2023-01-28T10:57:28;4.30;;;2.73;;
2602;SDS011;1311;47.966;7.958;2023-01-28T11:00:07;3.00;;;2.63;;
2602;SDS011;1311;47.966;7.958;2023-01-28T11:02:36;4.87;;;2.83;;
2602;SDS011;1311;47.966;7.958;2023-01-28T11:05:06;3.13;;;2.50;;
2602;SDS011;1311;47.966;7.958;2023-01-28T11:07:41;3.60;;;2.60;;
2602;SDS011;1311;47.966;7.958;2023-01-28T11:10:24;5.23;;;3.20;;
2602;SDS011;1311;47.966;7.958;2023-01-28T11:12:55;5.33;;;4.80;;
2602;SDS011;1311;47.966;7.958;2023-01-28T11:15:26;3.60;;;2.87;;
2602;SDS011;1311;47.966;7.958;2023-01-28T11:17:55;5.10;;;4.60;;
2602;SDS011;1311;47.966;7.958;2023-01-28T11:20:26;4.83;;;4.33;;
2602;SDS011;1311;47.966;7.958;2023-01-28T11:22:55;4.03;;;3.63;;
2602;SDS011;1311;47.966;7.958;2023-01-28T11:25:25;4.80;;;4.30;;
2602;SDS011;1311;47.966;7.958;2023-01-28T11:27:56;3.70;;;3.17;;
2602;SDS011;1311;47.966;7.958;2023-01-28T11:30:29;3.43;;;2.97;;
2602;SDS011;1311;47.966;7.958;2023-01-28T11:33:03;3.63;;;2.90;;
2602;SDS011;1311;47.966;7.958;2023-01-28T11:35:40;3.07;;;2.43;;
2602;SDS011;1311;47.966;7.958;2023-01-28T11:38:13;3.13;;;2.47;;
2602;SDS011;1311;47.966;7.958;2023-01-28T11:40:48;5.70;;;4.00;;
2602;SDS011;1311;47.966;7.958;2023-01-28T11:43:15;4.87;;;4.40;;
2602;SDS011;1311;47.966;7.958;2023-01-28T11:45:43;3.70;;;3.30;;
2602;SDS011;1311;47.966;7.958;2023-01-28T11:48:19;2.97;;;2.23;;
2602;SDS011;1311;47.966;7.958;2023-01-28T11:50:58;2.50;;;2.27;;
2602;SDS011;1311;47.966;7.958;2023-01-28T11:53:41;2.20;;;2.00;;
2602;SDS011;1311;47.966;7.958;2023-01-28T11:56:38;6.73;;;3.60;;
2602;SDS011;1311;47.966;7.958;2023-01-28T11:59:33;4.77;;;2.90;;
2602;SDS011;1311;47.966;7.958;2023-01-28T12:02:19;3.10;;;2.40;;
2602;SDS011;1311;47.966;7.958;2023-01-28T12:05:07;4.80;;;2.10;;
2602;SDS011;1311;47.966;7.958;2023-01-28T12:07:47;2.43;;;2.23;;
2602;SDS011;1311;47.966;7.958;2023-01-28T12:10:23;3.07;;;2.57;;
2602;SDS011;1311;47.966;7.958;2023-01-28T12:13:04;4.03;;;3.03;;
2602;SDS011;1311;47.966;7.958;2023-01-28T12:15:47;3.67;;;2.83;;
2602;SDS011;1311;47.966;7.958;2023-01-28T12:18:34;5.00;;;2.70;;
2602;SDS011;1311;47.966;7.958;2023-01-28T12:21:15;3.93;;;2.90;;
2602;SDS011;1311;47.966;7.958;2023-01-28T12:23:57;4.57;;;3.07;;
2602;SDS011;1311;47.966;7.958;2023-01-28T12:26:39;4.13;;;2.73;;
2602;SDS011;1311;47.966;7.958;2023-01-28T12:29:16;3.43;;;2.77;;
2602;SDS011;1311;47.966;7.958;2023-01-28T12:31:55;4.43;;;3.03;;
2602;SDS011;1311;47.966;7.958;2023-01-28T12:34:39;5.80;;;3.80;;
2602;SDS011;1311;47.966;7.958;2023-01-28T12:37:41;5.73;;;3.40;;
2602;SDS011;1311;47.966;7.958;2023-01-28T12:40:24;3.80;;;2.83;;
2602;SDS011;1311;47.966;7.958;2023-01-28T12:43:16;4.00;;;1.90;;
2602;SDS011;1311;47.966;7.958;2023-01-28T12:45:48;4.63;;;3.23;;
2602;SDS011;1311;47.966;7.958;2023-01-28T12:48:21;4.40;;;2.87;;
2602;SDS011;1311;47.966;7.958;2023-01-28T12:50:53;3.37;;;2.50;;
2602;SDS011;1311;47.966;7.958;2023-01-28T12:53:24;3.00;;;2.40;;
2602;SDS011;1311;47.966;7.958;2023-01-28T12:55:59;3.03;;;2.60;;
2602;SDS011;1311;47.966;7.958;2023-01-28T12:58:34;4.20;;;3.30;;
2602;SDS011;1311;47.966;7.958;2023-01-28T13:01:06;3.40;;;2.87;;
2602;SDS011;1311;47.966;7.958;2023-01-28T13:03:35;4.40;;;2.97;;
2602;SDS011;1311;47.966;7.958;2023-01-28T13:06:07;3.50;;;3.03;;
2602;SDS011;1311;47.966;7.958;2023-01-28T13:08:39;3.30;;;2.77;;
2602;SDS011;1311;47.966;7.958;2023-01-28T13:11:13;4.23;;;3.20;;
2602;SDS011;1311;47.966;7.958;2023-01-28T13:13:41;3.50;;;3.20;;
2602;SDS011;1311;47.966;7.958;2023-01-28T13:16:11;3.97;;;3.10;;
2602;SDS011;1311;47.966;7.958;2023-01-28T13:18:42;3.73;;;2.77;;
2602;SDS011;1311;47.966;7.958;2023-01-28T13:24:05;6.37;;;3.80;;
2602;SDS011;1311;47.966;7.958;2023-01-28T13:26:46;3.63;;;3.10;;
2602;SDS011;1311;47.966;7.958;2023-01-28T13:29:18;6.70;;;3.90;;
2602;SDS011;1311;47.966;7.958;2023-01-28T13:31:53;4.00;;;3.20;;
2602;SDS011;1311;47.966;7.958;2023-01-28T13:34:26;5.47;;;3.50;;
2602;SDS011;1311;47.966;7.958;2023-01-28T13:37:05;4.20;;;3.07;;
2602;SDS011;1311;47.966;7.958;2023-01-28T13:39:45;4.63;;;3.60;;
2602;SDS011;1311;47.966;7.958;2023-01-28T13:42:22;3.40;;;2.93;;
2602;SDS011;1311;47.966;7.958;2023-01-28T13:44:51;6.77;;;4.77;;
2602;SDS011;1311;47.966;7.958;2023-01-28T13:47:20;4.07;;;3.50;;
2602;SDS011;1311;47.966;7.958;2023-01-28T13:49:53;5.03;;;3.10;;
2602;SDS011;1311;47.966;7.958;2023-01-28T13:52:23;5.00;;;3.30;;
2602;SDS011;1311;47.966;7.958;2023-01-28T13:54:54;4.67;;;3.30;;
2602;SDS011;1311;47.966;7.958;2023-01-28T14:00:29;6.00;;;3.67;;
2602;SDS011;1311;47.966;7.958;2023-01-28T14:06:01;4.60;;;3.87;;
2602;SDS011;1311;47.966;7.958;2023-01-28T14:09:01;5.20;;;3.63;;
2602;SDS011;1311;47.966;7.958;2023-01-28T14:11:53;4.30;;;3.60;;
2602;SDS011;1311;47.966;7.958;2023-01-28T14:14:46;6.30;;;3.70;;
2602;SDS011;1311;47.966;7.958;2023-01-28T14:17:40;6.83;;;3.53;;
2602;SDS011;1311;47.966;7.958;2023-01-28T14:20:13;5.63;;;3.37;;
2602;SDS011;1311;47.966;7.958;2023-01-28T14:22:44;4.90;;;3.60;;
2602;SDS011;1311;47.966;7.958;2023-01-28T14:25:14;4.93;;;3.60;;
2602;SDS011;1311;47.966;7.958;2023-01-28T14:27:44;5.20;;;3.90;;
2602;SDS011;1311;47.966;7.958;2023-01-28T14:30:17;4.67;;;3.60;;
2602;SDS011;1311;47.966;7.958;2023-01-28T14:32:48;6.00;;;3.90;;
2602;SDS011;1311;47.966;7.958;2023-01-28T14:35:18;8.90;;;4.20;;
2602;SDS011;1311;47.966;7.958;2023-01-28T14:37:48;4.03;;;2.97;;
2602;SDS011;1311;47.966;7.958;2023-01-28T14:40:16;5.87;;;3.87;;
2602;SDS011;1311;47.966;7.958;2023-01-28T14:42:45;4.63;;;3.43;;
2602;SDS011;1311;47.966;7.958;2023-01-28T14:45:21;6.60;;;4.00;;
2602;SDS011;1311;47.966;7.958;2023-01-28T14:48:07;4.77;;;3.40;;
2602;SDS011;1311;47.966;7.958;2023-01-28T14:50:46;4.60;;;3.70;;
2602;SDS011;1311;47.966;7.958;2023-01-28T14:53:34;4.30;;;3.00;;
2602;SDS011;1311;47.966;7.958;2023-01-28T14:56:27;5.23;;;3.90;;
2602;SDS011;1311;47.966;7.958;2023-01-28T14:59:01;4.27;;;3.23;;
2602;SDS011;1311;47.966;7.958;2023-01-28T15:01:41;5.47;;;3.47;;
2602;SDS011;1311;47.966;7.958;2023-01-28T15:04:19;6.30;;;3.80;;
2602;SDS011;1311;47.966;7.958;2023-01-28T15:06:48;6.63;;;4.60;;
2602;SDS011;1311;47.966;7.958;2023-01-28T15:09:15;5.93;;;3.93;;
2602;SDS011;1311;47.966;7.958;2023-01-28T15:11:42;5.70;;;4.20;;
2602;SDS011;1311;47.966;7.958;2023-01-28T15:14:12;3.80;;;3.27;;
2602;SDS011;1311;47.966;7.958;2023-01-28T15:16:47;3.80;;;3.40;;
2602;SDS011;1311;47.966;7.958;2023-01-28T15:19:14;6.60;;;3.80;;
2602;SDS011;1311;47.966;7.958;2023-01-28T15:21:41;7.30;;;3.83;;
2602;SDS011;1311;47.966;7.958;2023-01-28T15:24:11;4.73;;;3.60;;
2602;SDS011;1311;47.966;7.958;2023-01-28T15:26:43;4.60;;;3.30;;
2602;SDS011;1311;47.966;7.958;2023-01-28T15:29:19;4.60;;;3.63;;
2602;SDS011;1311;47.966;7.958;2023-01-28T15:31:52;4.57;;;3.50;;
2602;SDS011;1311;47.966;7.958;2023-01-28T15:34:19;4.67;;;3.33;;
2602;SDS011;1311;47.966;7.958;2023-01-28T15:36:47;5.27;;;3.30;;
2602;SDS011;1311;47.966;7.958;2023-01-28T15:39:15;4.40;;;3.40;;
2602;SDS011;1311;47.966;7.958;2023-01-28T15:41:43;6.43;;;3.73;;
2602;SDS011;1311;47.966;7.958;2023-01-28T15:44:16;4.60;;;3.37;;
2602;SDS011;1311;47.966;7.958;2023-01-28T15:46:48;6.80;;;4.33;;
2602;SDS011;1311;47.966;7.958;2023-01-28T15:49:16;6.00;;;4.00;;
2602;SDS011;1311;47.966;7.958;2023-01-28T15:51:47;8.93;;;4.83;;